createdAt,value
2019-03-20T00:00:11.964Z,2.00
2019-03-20T00:01:11.944Z,3.40
2019-03-20T00:02:11.943Z,4.00
2019-03-20T00:03:11.951Z,2.50
2019-03-20T00:04:11.955Z,2.00
2019-03-20T00:05:11.957Z,3.50
2019-03-20T00:06:11.972Z,2.50
2019-03-20T00:07:11.964Z,3.10
2019-03-20T00:08:11.968Z,2.70
2019-03-20T00:09:11.975Z,2.20
2019-03-20T00:10:11.978Z,2.00
2019-03-20T00:11:11.984Z,3.80
2019-03-20T00:12:11.988Z,2.70
2019-03-20T00:13:11.992Z,2.70
2019-03-20T00:14:11.999Z,3.40
2019-03-20T00:15:11.996Z,1.90
2019-03-20T00:16:12.005Z,4.40
2019-03-20T00:17:12.008Z,2.10
2019-03-20T00:18:12.010Z,2.30
2019-03-20T00:19:12.016Z,2.00
2019-03-20T00:20:12.077Z,1.90
2019-03-20T00:21:12.022Z,3.20
2019-03-20T00:22:12.024Z,3.10
2019-03-20T00:23:12.084Z,2.20
2019-03-20T00:24:12.031Z,2.60
2019-03-20T00:25:12.042Z,2.70
2019-03-20T00:26:12.040Z,2.50
2019-03-20T00:27:12.046Z,2.50
2019-03-20T00:28:12.046Z,2.10
2019-03-20T00:29:12.051Z,2.00
2019-03-20T00:30:12.065Z,2.00
2019-03-20T00:31:12.059Z,2.00
2019-03-20T00:32:12.068Z,2.30
2019-03-20T00:33:12.063Z,3.60
2019-03-20T00:34:12.071Z,2.60
2019-03-20T00:35:12.071Z,2.60
2019-03-20T00:36:12.075Z,1.90
2019-03-20T00:37:12.089Z,2.30
2019-03-20T00:38:12.087Z,1.90
2019-03-20T00:39:12.090Z,2.00
2019-03-20T00:40:12.095Z,2.10
2019-03-20T00:41:12.095Z,2.20
2019-03-20T00:42:12.097Z,2.30
2019-03-20T00:43:12.102Z,2.10
2019-03-20T00:44:12.108Z,2.50
2019-03-20T00:45:12.108Z,2.20
2019-03-20T00:46:12.113Z,2.20
2019-03-20T00:47:12.120Z,2.10
2019-03-20T00:48:12.122Z,2.30
2019-03-20T00:49:12.126Z,2.00
2019-03-20T00:50:12.131Z,2.60
2019-03-20T00:51:12.132Z,2.10
2019-03-20T00:52:12.141Z,3.30
2019-03-20T00:53:12.140Z,2.50
2019-03-20T00:54:12.144Z,2.50
2019-03-20T00:55:12.151Z,2.20
2019-03-20T00:56:12.150Z,3.00
2019-03-20T00:57:12.152Z,2.10
2019-03-20T00:58:12.162Z,2.40
2019-03-20T00:59:12.164Z,2.30
2019-03-20T01:00:12.168Z,2.30
2019-03-20T01:01:12.174Z,2.30
2019-03-20T01:02:12.173Z,1.90
2019-03-20T01:03:12.178Z,2.10
2019-03-20T01:04:12.183Z,2.80
2019-03-20T01:05:13.072Z,2.40
2019-03-20T01:06:12.192Z,2.70
2019-03-20T01:07:12.195Z,2.20
2019-03-20T01:08:12.202Z,2.00
2019-03-20T01:09:12.200Z,2.20
2019-03-20T01:10:12.205Z,3.70
2019-03-20T01:11:12.208Z,2.80
2019-03-20T01:12:12.213Z,2.40
2019-03-20T01:13:12.219Z,2.50
2019-03-20T01:14:12.226Z,2.20
2019-03-20T01:15:12.223Z,2.70
2019-03-20T01:16:12.232Z,2.20
2019-03-20T01:17:12.230Z,2.10
2019-03-20T01:18:12.239Z,2.50
2019-03-20T01:19:12.243Z,2.30
2019-03-20T01:20:12.247Z,2.00
2019-03-20T01:21:12.251Z,1.90
2019-03-20T01:22:12.254Z,4.10
2019-03-20T01:23:12.261Z,2.30
2019-03-20T01:24:12.263Z,2.50
2019-03-20T01:25:12.264Z,2.40
2019-03-20T01:26:12.266Z,2.20
2019-03-20T01:27:12.271Z,4.50
2019-03-20T01:28:12.276Z,3.40
2019-03-20T01:29:12.277Z,2.70
2019-03-20T01:30:12.285Z,2.40
2019-03-20T01:31:12.287Z,2.00
2019-03-20T01:32:12.290Z,2.70
2019-03-20T01:33:12.298Z,2.20
2019-03-20T01:34:12.306Z,1.90
2019-03-20T01:35:12.306Z,4.50
2019-03-20T01:36:12.316Z,2.20
2019-03-20T01:37:12.313Z,2.20
2019-03-20T01:38:12.315Z,2.70
2019-03-20T01:39:12.326Z,2.70
2019-03-20T01:40:12.323Z,1.90
2019-03-20T01:41:12.330Z,1.90
2019-03-20T01:42:12.335Z,1.90
2019-03-20T01:43:12.333Z,2.50
2019-03-20T01:44:12.341Z,2.20
2019-03-20T01:45:12.385Z,2.10
2019-03-20T01:46:12.345Z,4.00
2019-03-20T01:47:12.354Z,2.10
2019-03-20T01:48:12.357Z,2.20
2019-03-20T01:49:12.361Z,2.70
2019-03-20T01:50:12.364Z,2.10
2019-03-20T01:51:12.369Z,2.20
2019-03-20T01:52:12.371Z,1.90
2019-03-20T01:53:12.384Z,2.90
2019-03-20T01:54:12.380Z,2.00
2019-03-20T01:55:12.381Z,2.20
2019-03-20T01:56:12.385Z,2.30
2019-03-20T01:57:12.387Z,2.50
2019-03-20T01:58:12.394Z,2.50
2019-03-20T01:59:12.397Z,2.00
2019-03-20T02:00:12.405Z,1.90
2019-03-20T02:01:12.408Z,2.20
2019-03-20T02:02:12.414Z,2.30
2019-03-20T02:03:12.411Z,2.10
2019-03-20T02:04:12.416Z,2.70
2019-03-20T02:05:12.424Z,2.20
2019-03-20T02:06:12.427Z,1.90
2019-03-20T02:07:12.427Z,1.80
2019-03-20T02:08:12.431Z,2.10
2019-03-20T02:09:12.434Z,1.90
2019-03-20T02:10:12.438Z,2.40
2019-03-20T02:11:12.443Z,1.80
2019-03-20T02:12:12.451Z,1.90
2019-03-20T02:13:12.450Z,2.10
2019-03-20T02:14:12.458Z,1.90
2019-03-20T02:15:12.459Z,2.50
2019-03-20T02:16:12.464Z,2.00
2019-03-20T02:17:12.467Z,2.00
2019-03-20T02:18:12.471Z,2.50
2019-03-20T02:19:12.474Z,1.90
2019-03-20T02:20:12.484Z,2.00
2019-03-20T02:21:12.480Z,2.20
2019-03-20T02:22:12.490Z,2.50
2019-03-20T02:23:12.488Z,3.30
2019-03-20T02:24:12.495Z,2.00
2019-03-20T02:25:12.495Z,1.90
2019-03-20T02:26:12.505Z,1.90
2019-03-20T02:27:12.510Z,2.00
2019-03-20T02:28:12.506Z,1.90
2019-03-20T02:29:12.509Z,2.00
2019-03-20T02:30:12.514Z,2.30
2019-03-20T02:31:12.529Z,3.30
2019-03-20T02:32:12.534Z,2.10
2019-03-20T02:33:12.541Z,3.00
2019-03-20T02:34:12.530Z,3.70
2019-03-20T02:35:12.532Z,2.00
2019-03-20T02:36:12.538Z,2.10
2019-03-20T02:37:12.565Z,2.80
2019-03-20T02:38:12.565Z,2.80
2019-03-20T02:39:12.549Z,2.00
2019-03-20T02:40:12.551Z,2.10
2019-03-20T02:41:12.562Z,2.50
2019-03-20T02:42:12.559Z,2.20
2019-03-20T02:43:12.565Z,3.80
2019-03-20T02:44:12.565Z,2.40
2019-03-20T02:45:12.579Z,3.20
2019-03-20T02:46:12.577Z,2.40
2019-03-20T02:47:12.577Z,2.20
2019-03-20T02:48:12.579Z,2.40
2019-03-20T02:49:12.586Z,2.80
2019-03-20T02:50:12.617Z,2.50
2019-03-20T02:51:12.594Z,2.60
2019-03-20T02:52:12.601Z,3.00
2019-03-20T02:53:12.601Z,2.50
2019-03-20T02:54:12.602Z,4.00
2019-03-20T02:55:12.621Z,3.40
2019-03-20T02:56:12.610Z,2.00
2019-03-20T02:57:12.614Z,2.80
2019-03-20T02:58:12.617Z,2.50
2019-03-20T02:59:12.629Z,2.40
2019-03-20T03:00:12.644Z,3.70
2019-03-20T03:01:12.631Z,2.70
2019-03-20T03:02:12.628Z,2.00
2019-03-20T03:03:12.632Z,2.20
2019-03-20T03:04:12.634Z,2.40
2019-03-20T03:05:12.643Z,2.20
2019-03-20T03:06:12.645Z,2.50
2019-03-20T03:07:12.656Z,2.90
2019-03-20T03:08:12.654Z,2.00
2019-03-20T03:09:12.674Z,2.30
2019-03-20T03:10:12.674Z,1.80
2019-03-20T03:11:12.659Z,1.90
2019-03-20T03:12:12.667Z,2.70
2019-03-20T03:13:12.674Z,1.90
2019-03-20T03:14:12.671Z,2.10
2019-03-20T03:15:12.679Z,2.00
2019-03-20T03:16:12.676Z,2.70
2019-03-20T03:17:12.688Z,4.60
2019-03-20T03:18:12.687Z,4.40
2019-03-20T03:19:12.689Z,8.10
2019-03-20T03:20:12.705Z,3.10
2019-03-20T03:21:12.705Z,3.00
2019-03-20T03:22:12.702Z,3.00
2019-03-20T03:23:12.702Z,2.40
2019-03-20T03:24:12.711Z,3.40
2019-03-20T03:25:12.712Z,2.20
2019-03-20T03:26:12.730Z,2.10
2019-03-20T03:27:12.716Z,3.60
2019-03-20T03:28:12.722Z,2.50
2019-03-20T03:29:12.725Z,2.30
2019-03-20T03:30:12.731Z,2.40
2019-03-20T03:31:12.736Z,2.50
2019-03-20T03:32:12.739Z,2.70
2019-03-20T03:33:12.759Z,3.50
2019-03-20T03:34:12.739Z,3.20
2019-03-20T03:35:17.153Z,3.10
2019-03-20T03:36:21.140Z,2.30
2019-03-20T03:37:12.755Z,2.20
2019-03-20T03:38:12.760Z,3.00
2019-03-20T03:39:12.760Z,2.70
2019-03-20T03:40:12.767Z,1.90
2019-03-20T03:41:12.763Z,1.80
2019-03-20T03:42:12.770Z,2.30
2019-03-20T03:43:12.776Z,2.80
2019-03-20T03:44:12.810Z,4.10
2019-03-20T03:45:12.781Z,2.20
2019-03-20T03:46:12.778Z,3.10
2019-03-20T03:47:12.785Z,2.10
2019-03-20T03:48:12.790Z,2.10
2019-03-20T03:49:12.795Z,2.30
2019-03-20T03:50:12.791Z,3.10
2019-03-20T03:51:12.808Z,1.90
2019-03-20T03:52:12.799Z,1.90
2019-03-20T03:53:12.803Z,1.80
2019-03-20T03:54:12.810Z,1.60
2019-03-20T03:55:12.816Z,2.00
2019-03-20T03:56:12.815Z,1.90
2019-03-20T03:57:12.825Z,1.90
2019-03-20T03:58:12.831Z,1.50
2019-03-20T03:59:12.832Z,2.30
2019-03-20T04:00:12.826Z,1.70
2019-03-20T04:01:12.836Z,1.70
2019-03-20T04:02:12.832Z,2.50
2019-03-20T04:03:12.838Z,1.40
2019-03-20T04:04:12.845Z,2.50
2019-03-20T04:05:12.856Z,1.60
2019-03-20T04:06:12.846Z,1.80
2019-03-20T04:07:12.849Z,1.80
2019-03-20T04:08:12.858Z,1.70
2019-03-20T04:09:12.861Z,1.60
2019-03-20T04:10:12.856Z,1.60
2019-03-20T04:11:12.866Z,1.70
2019-03-20T04:12:12.874Z,1.70
2019-03-20T04:13:12.870Z,1.80
2019-03-20T04:14:12.887Z,2.00
2019-03-20T04:15:12.875Z,1.60
2019-03-20T04:16:12.884Z,2.00
2019-03-20T04:17:12.885Z,3.10
2019-03-20T04:18:12.886Z,1.70
2019-03-20T04:19:12.892Z,2.10
2019-03-20T04:20:12.899Z,1.80
2019-03-20T04:21:12.907Z,2.00
2019-03-20T04:22:12.897Z,2.70
2019-03-20T04:23:12.899Z,1.80
2019-03-20T04:24:12.906Z,1.80
2019-03-20T04:25:12.908Z,2.00
2019-03-20T04:26:12.908Z,1.60
2019-03-20T04:27:12.922Z,1.70
2019-03-20T04:28:12.921Z,1.70
2019-03-20T04:29:12.919Z,1.80
2019-03-20T04:30:12.923Z,1.90
2019-03-20T04:31:12.926Z,2.40
2019-03-20T04:32:12.939Z,2.30
2019-03-20T04:33:12.938Z,1.80
2019-03-20T04:34:12.991Z,2.00
2019-03-20T04:35:12.961Z,1.90
2019-03-20T04:36:12.940Z,1.90
2019-03-20T04:37:12.950Z,3.00
2019-03-20T04:38:12.977Z,2.40
2019-03-20T04:39:12.949Z,28.10
2019-03-20T04:40:12.957Z,44.10
2019-03-20T04:41:12.955Z,17.50
2019-03-20T04:42:12.962Z,8.70
2019-03-20T04:43:13.010Z,2.10
2019-03-20T04:44:12.971Z,3.00
2019-03-20T04:45:13.024Z,3.80
2019-03-20T04:46:12.971Z,2.00
2019-03-20T04:47:12.973Z,2.00
2019-03-20T04:48:12.981Z,2.00
2019-03-20T04:49:12.983Z,3.00
2019-03-20T04:50:12.982Z,4.50
2019-03-20T04:51:12.991Z,2.00
2019-03-20T04:52:12.990Z,1.80
2019-03-20T04:53:12.998Z,1.90
2019-03-20T04:54:12.998Z,2.30
2019-03-20T04:55:13.003Z,2.40
2019-03-20T04:56:13.003Z,2.10
2019-03-20T04:57:13.005Z,2.30
2019-03-20T04:58:13.013Z,2.00
2019-03-20T04:59:13.016Z,1.80
2019-03-20T05:00:13.015Z,2.70
2019-03-20T05:01:13.021Z,1.80
2019-03-20T05:02:13.028Z,1.80
2019-03-20T05:03:13.028Z,2.40
2019-03-20T05:04:13.027Z,1.90
2019-03-20T05:05:13.028Z,1.70
2019-03-20T05:06:13.038Z,2.30
2019-03-20T05:07:13.036Z,2.90
2019-03-20T05:08:13.039Z,1.90
2019-03-20T05:09:13.042Z,4.20
2019-03-20T05:10:13.048Z,4.10
2019-03-20T05:11:13.053Z,3.30
2019-03-20T05:12:13.053Z,2.20
2019-03-20T05:13:13.055Z,2.00
2019-03-20T05:14:13.056Z,2.80
2019-03-20T05:15:13.068Z,1.90
2019-03-20T05:16:13.069Z,1.80
2019-03-20T05:17:13.065Z,2.80
2019-03-20T05:18:13.068Z,2.80
2019-03-20T05:19:13.076Z,2.20
2019-03-20T05:20:13.077Z,1.70
2019-03-20T05:21:13.079Z,1.70
2019-03-20T05:22:13.084Z,2.00
2019-03-20T05:23:13.085Z,1.80
2019-03-20T05:24:13.090Z,1.80
2019-03-20T05:25:13.096Z,2.30
2019-03-20T05:26:13.097Z,1.70
2019-03-20T05:27:13.098Z,1.80
2019-03-20T05:28:13.103Z,2.20
2019-03-20T05:29:13.104Z,1.80
2019-03-20T05:30:13.108Z,2.10
2019-03-20T05:31:13.109Z,1.80
2019-03-20T05:32:13.112Z,2.10
2019-03-20T05:33:13.125Z,2.30
2019-03-20T05:34:13.117Z,1.80
2019-03-20T05:35:13.128Z,1.90
2019-03-20T05:36:13.123Z,4.20
2019-03-20T05:37:13.127Z,2.20
2019-03-20T05:38:13.130Z,3.40
2019-03-20T05:39:15.698Z,2.60
2019-03-20T05:40:13.137Z,2.30
2019-03-20T05:41:13.149Z,3.90
2019-03-20T05:42:13.145Z,1.80
2019-03-20T05:43:13.158Z,2.00
2019-03-20T05:44:13.149Z,1.90
2019-03-20T05:45:13.157Z,1.90
2019-03-20T05:46:13.158Z,1.60
2019-03-20T05:47:13.159Z,1.90
2019-03-20T05:48:13.165Z,1.70
2019-03-20T05:49:13.167Z,1.80
2019-03-20T05:50:13.170Z,2.40
2019-03-20T05:51:13.170Z,1.90
2019-03-20T05:52:13.178Z,1.80
2019-03-20T05:53:13.180Z,1.80
2019-03-20T05:54:13.181Z,1.80
2019-03-20T05:55:13.190Z,1.70
2019-03-20T05:56:13.190Z,2.40
2019-03-20T05:57:13.188Z,2.20
2019-03-20T05:58:13.196Z,2.00
2019-03-20T05:59:13.200Z,2.00
2019-03-20T06:00:13.201Z,1.90
2019-03-20T06:01:13.201Z,3.00
2019-03-20T06:02:13.203Z,1.90
2019-03-20T06:03:13.209Z,3.50
2019-03-20T06:04:13.217Z,2.00
2019-03-20T06:05:13.219Z,3.10
2019-03-20T06:06:13.218Z,2.00
2019-03-20T06:07:21.055Z,1.80
2019-03-20T06:08:13.223Z,1.70
2019-03-20T06:09:13.228Z,2.00
2019-03-20T06:10:13.230Z,2.20
2019-03-20T06:11:13.231Z,2.10
2019-03-20T06:12:13.236Z,3.60
2019-03-20T06:13:13.236Z,2.00
2019-03-20T06:14:13.244Z,1.60
2019-03-20T06:15:13.246Z,1.70
2019-03-20T06:16:13.247Z,2.50
2019-03-20T06:17:13.252Z,1.60
2019-03-20T06:18:13.255Z,1.80
2019-03-20T06:19:13.263Z,1.80
2019-03-20T06:20:13.259Z,1.90
2019-03-20T06:21:13.267Z,1.80
2019-03-20T06:22:13.268Z,2.00
2019-03-20T06:23:13.268Z,1.70
2019-03-20T06:24:13.272Z,1.80
2019-03-20T06:25:13.288Z,2.30
2019-03-20T06:26:13.283Z,2.00
2019-03-20T06:27:13.285Z,2.10
2019-03-20T06:28:13.292Z,2.30
2019-03-20T06:29:13.290Z,1.90
2019-03-20T06:30:13.299Z,3.30
2019-03-20T06:31:13.293Z,2.70
2019-03-20T06:32:13.300Z,2.90
2019-03-20T06:33:13.297Z,1.70
2019-03-20T06:34:13.306Z,2.30
2019-03-20T06:35:13.308Z,2.40
2019-03-20T06:36:13.308Z,3.00
2019-03-20T06:37:13.314Z,1.70
2019-03-20T06:38:13.313Z,2.00
2019-03-20T06:39:13.317Z,2.10
2019-03-20T06:40:13.326Z,2.30
2019-03-20T06:41:13.324Z,2.60
2019-03-20T06:42:13.325Z,1.70
2019-03-20T06:43:13.329Z,2.00
2019-03-20T06:44:13.335Z,2.20
2019-03-20T06:45:13.334Z,1.90
2019-03-20T06:46:13.336Z,1.70
2019-03-20T06:47:13.342Z,3.90
2019-03-20T06:48:13.344Z,2.40
2019-03-20T06:49:13.351Z,3.00
2019-03-20T06:50:13.355Z,2.90
2019-03-20T06:51:13.397Z,2.50
2019-03-20T06:52:13.357Z,2.40
2019-03-20T06:53:13.362Z,1.90
2019-03-20T06:54:13.364Z,1.80
2019-03-20T06:55:13.366Z,3.50
2019-03-20T06:56:13.369Z,2.40
2019-03-20T06:57:13.371Z,1.80
2019-03-20T06:58:13.378Z,2.00
2019-03-20T06:59:13.381Z,1.80
2019-03-20T07:00:13.390Z,1.90
2019-03-20T07:01:13.390Z,2.30
2019-03-20T07:02:13.389Z,2.40
2019-03-20T07:03:13.393Z,2.40
2019-03-20T07:04:13.395Z,1.90
2019-03-20T07:05:13.401Z,1.80
2019-03-20T07:06:13.400Z,1.90
2019-03-20T07:07:15.326Z,2.50
2019-03-20T07:08:13.409Z,1.90
2019-03-20T07:09:13.410Z,1.90
2019-03-20T07:10:13.415Z,2.00
2019-03-20T07:11:13.421Z,1.90
2019-03-20T07:12:13.420Z,1.60
2019-03-20T07:13:13.423Z,1.70
2019-03-20T07:14:13.426Z,2.10
2019-03-20T07:15:13.437Z,2.00
2019-03-20T07:16:13.433Z,2.40
2019-03-20T07:17:13.439Z,2.00
2019-03-20T07:18:13.448Z,2.30
2019-03-20T07:19:13.446Z,2.90
2019-03-20T07:20:13.449Z,3.30
2019-03-20T07:21:13.452Z,1.80
2019-03-20T07:22:13.455Z,1.90
2019-03-20T07:23:13.458Z,2.10
2019-03-20T07:24:13.462Z,2.50
2019-03-20T07:25:13.462Z,2.90
2019-03-20T07:26:13.466Z,1.70
2019-03-20T07:27:13.472Z,2.60
2019-03-20T07:28:13.483Z,3.50
2019-03-20T07:29:13.476Z,1.80
2019-03-20T07:30:13.481Z,1.80
2019-03-20T07:31:15.783Z,2.90
2019-03-20T07:32:13.488Z,2.20
2019-03-20T07:33:13.493Z,1.90
2019-03-20T07:34:13.494Z,2.20
2019-03-20T07:35:13.501Z,2.00
2019-03-20T07:36:13.500Z,2.30
2019-03-20T07:37:13.507Z,1.90
2019-03-20T07:38:13.506Z,1.60
2019-03-20T07:39:13.513Z,2.00
2019-03-20T07:40:13.514Z,1.70
2019-03-20T07:41:13.520Z,2.90
2019-03-20T07:42:13.522Z,1.70
2019-03-20T07:43:13.532Z,2.10
2019-03-20T07:44:13.528Z,1.70
2019-03-20T07:45:13.531Z,1.70
2019-03-20T07:46:13.535Z,1.50
2019-03-20T07:47:13.546Z,3.70
2019-03-20T07:48:21.569Z,1.70
2019-03-20T07:49:13.551Z,2.70
2019-03-20T07:50:13.600Z,1.90
2019-03-20T07:51:13.549Z,1.80
2019-03-20T07:52:13.554Z,1.80
2019-03-20T07:53:13.569Z,1.80
2019-03-20T07:54:13.561Z,1.60
2019-03-20T07:55:13.572Z,1.80
2019-03-20T07:56:13.567Z,1.60
2019-03-20T07:57:13.574Z,4.80
2019-03-20T07:58:13.573Z,2.40
2019-03-20T07:59:13.580Z,3.10
2019-03-20T08:00:13.582Z,1.60
2019-03-20T08:01:13.588Z,1.70
2019-03-20T08:02:13.593Z,1.70
2019-03-20T08:03:13.594Z,2.60
2019-03-20T08:04:13.595Z,2.20
2019-03-20T08:05:13.651Z,2.20
2019-03-20T08:06:13.602Z,1.80
2019-03-20T08:07:13.605Z,1.60
2019-03-20T08:08:13.618Z,1.60
2019-03-20T08:09:13.615Z,1.50
2019-03-20T08:10:13.616Z,1.80
2019-03-20T08:11:13.625Z,1.90
2019-03-20T08:12:13.627Z,2.30
2019-03-20T08:13:13.631Z,2.50
2019-03-20T08:14:13.632Z,3.00
2019-03-20T08:15:13.639Z,1.60
2019-03-20T08:16:13.638Z,1.90
2019-03-20T08:17:13.645Z,1.90
2019-03-20T08:18:13.646Z,3.50
2019-03-20T08:19:13.648Z,1.60
2019-03-20T08:20:13.653Z,1.60
2019-03-20T08:21:13.657Z,2.20
2019-03-20T08:22:13.659Z,2.20
2019-03-20T08:23:13.667Z,1.60
2019-03-20T08:24:13.676Z,1.80
2019-03-20T08:25:13.674Z,2.20
2019-03-20T08:26:13.674Z,2.90
2019-03-20T08:27:13.685Z,1.50
2019-03-20T08:28:13.687Z,1.70
2019-03-20T08:29:13.688Z,2.20
2019-03-20T08:30:13.936Z,1.50
2019-03-20T08:31:13.746Z,1.50
2019-03-20T08:32:13.698Z,1.90
2019-03-20T08:33:13.701Z,1.70
2019-03-20T08:34:13.711Z,2.30
2019-03-20T08:35:13.709Z,3.90
2019-03-20T08:36:13.714Z,1.90
2019-03-20T08:37:13.721Z,1.70
2019-03-20T08:38:18.083Z,1.70
2019-03-20T08:39:13.727Z,1.80
2019-03-20T08:40:13.732Z,1.80
2019-03-20T08:41:13.741Z,1.50
2019-03-20T08:42:13.741Z,2.40
2019-03-20T08:43:13.747Z,2.80
2019-03-20T08:44:13.747Z,1.90
2019-03-20T08:45:13.758Z,1.80
2019-03-20T08:46:13.759Z,1.70
2019-03-20T08:47:13.767Z,2.90
2019-03-20T08:48:13.767Z,2.10
2019-03-20T08:49:13.770Z,1.80
2019-03-20T08:50:13.775Z,1.50
2019-03-20T08:51:13.778Z,1.60
2019-03-20T08:52:13.785Z,2.80
2019-03-20T08:53:13.786Z,2.00
2019-03-20T08:54:13.791Z,2.00
2019-03-20T08:55:13.794Z,1.80
2019-03-20T08:56:13.800Z,2.20
2019-03-20T08:57:13.804Z,2.00
2019-03-20T08:58:13.807Z,1.70
2019-03-20T08:59:13.815Z,1.90
2019-03-20T09:00:13.816Z,2.70
2019-03-20T09:01:13.822Z,1.80
2019-03-20T09:02:13.827Z,1.90
2019-03-20T09:03:13.830Z,2.50
2019-03-20T09:04:13.840Z,1.90
2019-03-20T09:05:13.840Z,2.10
2019-03-20T09:06:13.845Z,1.50
2019-03-20T09:07:13.852Z,1.60
2019-03-20T09:08:13.854Z,2.20
2019-03-20T09:09:13.859Z,1.90
2019-03-20T09:10:13.862Z,2.80
2019-03-20T09:11:13.867Z,2.20
2019-03-20T09:12:13.871Z,2.00
2019-03-20T09:13:13.884Z,3.00
2019-03-20T09:14:13.884Z,1.70
2019-03-20T09:15:13.884Z,1.80
2019-03-20T09:16:13.890Z,1.50
2019-03-20T09:17:13.897Z,1.80
2019-03-20T09:18:13.899Z,1.40
2019-03-20T09:19:13.904Z,1.60
2019-03-20T09:20:13.911Z,2.00
2019-03-20T09:21:13.914Z,1.60
2019-03-20T09:22:13.925Z,1.80
2019-03-20T09:23:13.930Z,1.70
2019-03-20T09:24:13.934Z,1.70
2019-03-20T09:25:13.940Z,2.00
2019-03-20T09:26:13.940Z,2.00
2019-03-20T09:27:13.948Z,1.70
2019-03-20T09:28:13.949Z,2.10
2019-03-20T09:29:18.509Z,1.60
2019-03-20T09:30:13.965Z,1.70
2019-03-20T09:31:13.966Z,1.80
2019-03-20T09:32:13.973Z,2.40
2019-03-20T09:33:13.976Z,1.60
2019-03-20T09:34:13.981Z,2.00
2019-03-20T09:35:13.986Z,1.60
2019-03-20T09:36:13.993Z,1.70
2019-03-20T09:37:13.995Z,1.80
2019-03-20T09:38:14.004Z,1.70
2019-03-20T09:39:14.007Z,1.80
2019-03-20T09:40:14.013Z,1.60
2019-03-20T09:41:14.017Z,1.70
2019-03-20T09:42:14.027Z,2.80
2019-03-20T09:43:14.032Z,1.60
2019-03-20T09:44:14.036Z,2.90
2019-03-20T09:45:14.039Z,2.10
2019-03-20T09:46:14.050Z,1.60
2019-03-20T09:47:14.055Z,2.20
2019-03-20T09:48:14.061Z,1.60
2019-03-20T09:49:14.067Z,2.80
2019-03-20T09:50:14.078Z,1.80
2019-03-20T09:51:14.075Z,1.50
2019-03-20T09:52:14.087Z,2.30
2019-03-20T09:53:14.086Z,1.50
2019-03-20T09:54:14.102Z,2.50
2019-03-20T09:55:14.105Z,2.90
2019-03-20T09:56:14.109Z,2.90
2019-03-20T09:57:14.116Z,1.60
2019-03-20T09:58:14.126Z,1.80
2019-03-20T09:59:14.123Z,1.80
2019-03-20T10:00:14.130Z,1.50
2019-03-20T10:01:14.134Z,1.70
2019-03-20T10:02:14.139Z,1.90
2019-03-20T10:03:14.151Z,1.90
2019-03-20T10:04:14.159Z,1.60
2019-03-20T10:05:14.158Z,1.50
2019-03-20T10:06:14.164Z,1.70
2019-03-20T10:07:14.174Z,1.90
2019-03-20T10:08:14.182Z,1.60
2019-03-20T10:09:14.181Z,1.30
2019-03-20T10:10:14.193Z,1.50
2019-03-20T10:11:14.202Z,2.40
2019-03-20T10:12:14.201Z,1.40
2019-03-20T10:13:14.212Z,1.70
2019-03-20T10:14:14.214Z,2.10
2019-03-20T10:15:14.221Z,1.60
2019-03-20T10:16:14.231Z,2.30
2019-03-20T10:17:14.236Z,1.40
2019-03-20T10:18:14.239Z,1.60
2019-03-20T10:19:14.256Z,1.70
2019-03-20T10:20:14.254Z,3.40
2019-03-20T10:21:14.264Z,1.70
2019-03-20T10:22:14.279Z,1.50
2019-03-20T10:23:14.279Z,1.90
2019-03-20T10:24:14.283Z,1.60
2019-03-20T10:25:14.288Z,1.60
2019-03-20T10:26:14.294Z,2.50
2019-03-20T10:27:14.304Z,1.50
2019-03-20T10:28:14.309Z,1.40
2019-03-20T10:29:14.315Z,1.90
2019-03-20T10:30:14.323Z,1.50
2019-03-20T10:31:14.330Z,1.50
2019-03-20T10:32:14.337Z,1.60
2019-03-20T10:33:16.507Z,1.70
2019-03-20T10:34:14.357Z,2.30
2019-03-20T10:35:14.359Z,1.50
2019-03-20T10:36:14.373Z,1.90
2019-03-20T10:37:14.377Z,1.90
2019-03-20T10:38:14.381Z,1.70
2019-03-20T10:39:14.484Z,1.60
2019-03-20T10:40:14.403Z,1.50
2019-03-20T10:41:14.403Z,2.20
2019-03-20T10:42:14.418Z,2.20
2019-03-20T10:43:14.423Z,2.30
2019-03-20T10:44:14.428Z,1.50
2019-03-20T10:45:14.437Z,1.40
2019-03-20T10:46:14.443Z,2.30
2019-03-20T10:47:14.517Z,2.20
2019-03-20T10:48:14.467Z,2.40
2019-03-20T10:49:14.464Z,2.00
2019-03-20T10:50:14.473Z,1.80
2019-03-20T10:51:14.481Z,1.40
2019-03-20T10:52:14.487Z,2.80
2019-03-20T10:53:14.495Z,2.20
2019-03-20T10:54:16.523Z,1.80
2019-03-20T10:55:14.511Z,3.30
2019-03-20T10:56:14.520Z,1.80
2019-03-20T10:57:14.536Z,1.80
2019-03-20T10:58:14.550Z,1.40
2019-03-20T10:59:14.548Z,1.80
2019-03-20T11:00:14.552Z,2.50
2019-03-20T11:01:14.559Z,1.70
2019-03-20T11:02:14.566Z,2.20
2019-03-20T11:03:14.571Z,2.00
2019-03-20T11:04:14.579Z,2.70
2019-03-20T11:05:14.589Z,2.40
2019-03-20T11:06:14.595Z,1.90
2019-03-20T11:07:14.602Z,1.70
2019-03-20T11:08:14.615Z,2.20
2019-03-20T11:09:18.448Z,1.70
2019-03-20T11:10:14.629Z,1.60
2019-03-20T11:11:14.639Z,1.70
2019-03-20T11:12:14.643Z,1.70
2019-03-20T11:13:14.655Z,2.70
2019-03-20T11:14:14.682Z,1.80
2019-03-20T11:15:14.681Z,1.50
2019-03-20T11:16:14.689Z,1.40
2019-03-20T11:17:14.686Z,1.70
2019-03-20T11:18:14.717Z,2.20
2019-03-20T11:19:14.706Z,1.50
2019-03-20T11:20:14.711Z,1.80
2019-03-20T11:21:14.720Z,1.40
2019-03-20T11:22:19.019Z,2.90
2019-03-20T11:23:14.740Z,1.80
2019-03-20T11:24:15.381Z,1.60
2019-03-20T11:25:14.762Z,2.00
2019-03-20T11:26:14.761Z,1.50
2019-03-20T11:27:14.776Z,3.30
2019-03-20T11:28:14.784Z,2.00
2019-03-20T11:29:14.787Z,1.90
2019-03-20T11:30:14.800Z,1.80
2019-03-20T11:31:14.805Z,2.50
2019-03-20T11:32:14.833Z,1.60
2019-03-20T11:33:14.828Z,1.70
2019-03-20T11:34:14.835Z,4.00
2019-03-20T11:35:14.845Z,1.80
2019-03-20T11:36:14.855Z,2.40
2019-03-20T11:37:14.864Z,1.70
2019-03-20T11:38:14.868Z,1.70
2019-03-20T11:39:14.879Z,1.60
2019-03-20T11:40:14.891Z,2.00
2019-03-20T11:41:14.899Z,1.80
2019-03-20T11:42:14.907Z,2.40
2019-03-20T11:43:14.919Z,1.50
2019-03-20T11:44:14.929Z,2.10
2019-03-20T11:45:14.932Z,1.70
2019-03-20T11:46:14.941Z,2.50
2019-03-20T11:47:14.958Z,1.40
2019-03-20T11:48:14.965Z,1.70
2019-03-20T11:49:14.971Z,1.70
2019-03-20T11:50:14.979Z,2.30
2019-03-20T11:51:15.004Z,1.50
2019-03-20T11:52:14.999Z,1.50
2019-03-20T11:53:15.012Z,2.10
2019-03-20T11:54:15.018Z,1.90
2019-03-20T11:55:15.027Z,1.60
2019-03-20T11:56:15.045Z,1.50
2019-03-20T11:57:15.059Z,1.60
2019-03-20T11:58:15.057Z,2.20
2019-03-20T11:59:15.067Z,1.60
2019-03-20T12:00:15.078Z,2.00
2019-03-20T12:01:15.088Z,1.60
2019-03-20T12:02:15.099Z,2.70
2019-03-20T12:03:15.114Z,1.80
2019-03-20T12:04:15.124Z,1.50
2019-03-20T12:05:15.127Z,1.40
2019-03-20T12:06:15.138Z,1.60
2019-03-20T12:07:15.151Z,1.60
2019-03-20T12:08:15.158Z,1.40
2019-03-20T12:09:15.167Z,1.80
2019-03-20T12:10:15.182Z,1.50
2019-03-20T12:11:15.976Z,1.70
2019-03-20T12:12:15.203Z,1.70
2019-03-20T12:13:15.210Z,1.40
2019-03-20T12:14:15.218Z,1.70
2019-03-20T12:15:15.228Z,2.30
2019-03-20T12:16:15.245Z,2.40
2019-03-20T12:17:15.252Z,1.80
2019-03-20T12:18:15.262Z,2.00
2019-03-20T12:19:15.271Z,1.70
2019-03-20T12:20:15.281Z,1.50
2019-03-20T12:21:15.351Z,1.70
2019-03-20T12:22:15.304Z,2.90
2019-03-20T12:23:15.309Z,1.50
2019-03-20T12:24:15.320Z,1.50
2019-03-20T12:25:15.333Z,1.60
2019-03-20T12:26:15.344Z,1.50
2019-03-20T12:27:15.657Z,1.40
2019-03-20T12:28:15.366Z,1.90
2019-03-20T12:29:15.376Z,1.50
2019-03-20T12:30:15.384Z,1.60
2019-03-20T12:31:15.395Z,1.90
2019-03-20T12:32:15.405Z,1.70
2019-03-20T12:33:15.417Z,2.30
2019-03-20T12:34:15.423Z,2.60
2019-03-20T12:35:15.439Z,1.80
2019-03-20T12:36:15.446Z,1.40
2019-03-20T12:37:15.462Z,1.70
2019-03-20T12:38:15.671Z,1.30
2019-03-20T12:39:15.482Z,2.20
2019-03-20T12:40:15.494Z,1.70
2019-03-20T12:41:15.503Z,1.70
2019-03-20T12:42:15.515Z,1.50
2019-03-20T12:43:15.527Z,1.60
2019-03-20T12:44:15.537Z,1.50
2019-03-20T12:45:15.549Z,1.40
2019-03-20T12:46:15.561Z,1.70
2019-03-20T12:47:15.572Z,2.80
2019-03-20T12:48:15.585Z,1.50
2019-03-20T12:49:15.601Z,1.70
2019-03-20T12:50:15.603Z,1.50
2019-03-20T12:51:15.618Z,1.70
2019-03-20T12:52:15.630Z,1.70
2019-03-20T12:53:15.637Z,2.80
2019-03-20T12:54:15.655Z,1.60
2019-03-20T12:55:15.661Z,1.50
2019-03-20T12:56:15.673Z,1.40
2019-03-20T12:57:15.685Z,1.50
2019-03-20T12:58:15.697Z,3.40
2019-03-20T12:59:15.711Z,1.60
2019-03-20T13:00:15.720Z,1.60
2019-03-20T13:01:15.732Z,2.00
2019-03-20T13:02:15.744Z,1.60
2019-03-20T13:03:15.760Z,1.80
2019-03-20T13:04:15.773Z,1.50
2019-03-20T13:05:15.779Z,1.50
2019-03-20T13:06:15.791Z,2.50
2019-03-20T13:07:15.806Z,1.60
2019-03-20T13:08:15.815Z,1.50
2019-03-20T13:09:15.828Z,2.90
2019-03-20T13:10:15.842Z,1.70
2019-03-20T13:11:15.856Z,1.60
2019-03-20T13:12:15.866Z,1.70
2019-03-20T13:13:15.958Z,2.00
2019-03-20T13:14:15.896Z,1.70
2019-03-20T13:15:15.907Z,1.80
2019-03-20T13:16:15.920Z,2.90
2019-03-20T13:17:15.934Z,3.90
2019-03-20T13:18:15.946Z,1.60